Garnett, South Carolina
Current Conditions -  °F | °C
As of 3:55 PM on Thursday 23 Oct 2014 (Local Time) from KJYL Reporting Station
Clear Clear  
Wind Chill: 76°   Ceiling: Unl
Heat Index: 76°   Visibility: 10mi
Dew Point: 48°   Wind: 3mph
Humidity: 37%   Direction: 350°N
Pressure: 30.01"   Gusts: NA
Location:  32.61°N, 81.24°W
Report Text: KJYL 231955Z AUTO 35003KT 10SM CLR 24/09 A3001 RMK AO2 T02430089
Loading
Personal Weather Stations






























Interactive Weather Map
Tropical Storm Tracking
New forecast layout! Learn more

10-Day Weather Forecast

Advertisements
Track Severe Weather on mobile